createdAt,value
2023-02-14T00:00:05.771Z,7.30
2023-02-14T00:05:28.558Z,6.70
2023-02-14T00:10:31.683Z,7.60
2023-02-14T00:15:34.449Z,5.60
2023-02-14T00:20:37.223Z,7.90
2023-02-14T00:25:40.039Z,7.50
2023-02-14T00:30:42.939Z,7.00
2023-02-14T00:35:45.735Z,6.70
2023-02-14T00:40:49.071Z,7.90
2023-02-14T00:45:51.890Z,7.40
2023-02-14T00:50:54.717Z,5.50
2023-02-14T00:55:57.532Z,7.70
2023-02-14T01:01:01.671Z,7.60
2023-02-14T01:06:06.171Z,7.50
2023-02-14T01:11:12.122Z,7.20
2023-02-14T01:16:18.937Z,8.00
2023-02-14T01:21:31.590Z,7.70
2023-02-14T01:26:35.315Z,8.00
2023-02-14T01:31:38.221Z,7.60
2023-02-14T01:36:41.218Z,7.40
2023-02-14T01:41:48.935Z,7.60
2023-02-14T01:46:52.030Z,7.60
2023-02-14T01:52:06.020Z,6.30
2023-02-14T01:57:12.868Z,5.60
2023-02-14T02:02:15.881Z,8.00
2023-02-14T02:07:23.342Z,7.80
2023-02-14T02:12:29.200Z,7.00
2023-02-14T02:18:04.225Z,7.10
2023-02-14T02:23:28.872Z,7.60
2023-02-14T02:28:49.785Z,7.20
2023-02-14T02:34:40.869Z,7.30
2023-02-14T02:39:52.731Z,7.40
2023-02-14T02:45:15.147Z,7.50
2023-02-14T02:51:12.438Z,7.70
2023-02-14T02:56:46.401Z,7.40
2023-02-14T03:02:04.140Z,7.60
2023-02-14T03:07:27.533Z,7.60
2023-02-14T03:12:33.231Z,6.40
2023-02-14T03:17:49.597Z,6.80
2023-02-14T03:23:10.887Z,7.50
2023-02-14T03:28:28.647Z,7.10
2023-02-14T03:33:46.825Z,5.70
2023-02-14T03:39:13.343Z,7.90
2023-02-14T03:44:21.216Z,7.90
2023-02-14T03:49:29.624Z,8.00
2023-02-14T03:54:34.344Z,7.00
2023-02-14T03:59:37.395Z,7.20
2023-02-14T04:04:46.455Z,7.20
2023-02-14T04:09:50.351Z,7.60
2023-02-14T04:14:53.193Z,8.10
2023-02-14T04:19:55.964Z,8.60
2023-02-14T04:24:58.706Z,7.00
2023-02-14T04:30:01.574Z,7.10
2023-02-14T04:35:04.823Z,7.00
2023-02-14T04:40:08.619Z,5.50
2023-02-14T04:45:11.695Z,7.40
2023-02-14T04:50:14.969Z,7.10
2023-02-14T04:55:18.166Z,7.70
2023-02-14T05:00:21.299Z,7.10
2023-02-14T05:05:24.055Z,8.20
2023-02-14T05:10:26.828Z,6.80
2023-02-14T05:15:29.762Z,7.60
2023-02-14T05:20:32.690Z,6.60
2023-02-14T05:25:35.458Z,5.70
2023-02-14T05:30:38.536Z,6.70
2023-02-14T05:35:41.348Z,7.40
2023-02-14T05:40:44.419Z,4.90
2023-02-14T05:45:48.406Z,6.70
2023-02-14T05:50:54.248Z,8.20
2023-02-14T05:55:57.058Z,6.20
2023-02-14T06:01:01.009Z,5.80
2023-02-14T06:06:04.266Z,7.50
2023-02-14T06:11:07.047Z,8.40
2023-02-14T06:16:09.795Z,6.60
2023-02-14T06:21:12.675Z,6.30
2023-02-14T06:26:15.450Z,7.00
2023-02-14T06:31:18.365Z,8.60
2023-02-14T06:36:22.574Z,5.70
2023-02-14T06:41:25.363Z,7.50
2023-02-14T06:46:29.321Z,9.00
2023-02-14T06:51:32.258Z,8.10
2023-02-14T06:56:35.073Z,8.70
2023-02-14T07:01:38.057Z,6.20
2023-02-14T07:06:40.908Z,5.90
2023-02-14T07:11:45.641Z,5.50
2023-02-14T07:16:48.546Z,6.40
2023-02-14T07:21:51.385Z,7.40
2023-02-14T07:26:54.303Z,7.40
2023-02-14T07:31:57.560Z,7.50
2023-02-14T07:37:03.503Z,6.80
2023-02-14T07:42:08.476Z,6.60
2023-02-14T07:47:12.059Z,7.60
2023-02-14T07:52:15.002Z,6.30
2023-02-14T07:57:17.865Z,7.30
2023-02-14T08:02:21.730Z,6.70
2023-02-14T08:07:25.078Z,6.80
2023-02-14T08:12:46.679Z,7.20
2023-02-14T08:17:49.521Z,7.00
2023-02-14T08:22:53.668Z,6.20
2023-02-14T08:27:56.469Z,7.30
2023-02-14T08:32:59.533Z,7.40
2023-02-14T08:38:02.604Z,6.70
2023-02-14T08:43:07.064Z,7.80
2023-02-14T08:48:11.891Z,7.50
2023-02-14T08:53:15.168Z,4.50
2023-02-14T08:58:18.628Z,5.70
2023-02-14T09:03:21.810Z,5.60
2023-02-14T09:08:28.082Z,7.90
2023-02-14T09:13:32.002Z,6.80
2023-02-14T09:19:28.349Z,5.40
2023-02-14T09:24:42.905Z,6.50
2023-02-14T09:30:15.542Z,7.40
2023-02-14T09:35:22.985Z,6.40
2023-02-14T09:40:29.502Z,5.70
2023-02-14T09:45:34.074Z,7.20
2023-02-14T09:50:42.254Z,7.60
2023-02-14T09:55:57.471Z,5.70
2023-02-14T10:01:26.008Z,6.10
2023-02-14T10:06:43.973Z,5.40
2023-02-14T10:11:48.506Z,8.00
2023-02-14T10:16:59.809Z,5.50
2023-02-14T10:22:10.455Z,7.40
2023-02-14T10:27:45.505Z,8.10
2023-02-14T10:32:55.551Z,6.90
2023-02-14T10:38:40.901Z,7.90
2023-02-14T10:44:17.115Z,8.20
2023-02-14T10:49:32.093Z,6.50
2023-02-14T10:54:44.693Z,8.30
2023-02-14T10:59:57.181Z,7.50
2023-02-14T11:05:02.674Z,5.50
2023-02-14T11:10:14.485Z,7.60
2023-02-14T11:15:23.032Z,6.10
2023-02-14T11:20:32.201Z,7.50
2023-02-14T11:25:36.977Z,7.80
2023-02-14T11:30:43.076Z,7.80
2023-02-14T11:35:51.739Z,8.70
2023-02-14T11:40:56.527Z,7.30
2023-02-14T11:46:18.638Z,9.00
2023-02-14T11:51:26.965Z,8.20
2023-02-14T11:56:48.953Z,8.40
2023-02-14T12:01:52.599Z,8.60
2023-02-14T12:07:14.276Z,8.00
2023-02-14T12:12:23.725Z,7.30
2023-02-14T12:17:32.300Z,8.40
2023-02-14T12:22:42.026Z,7.70
2023-02-14T12:27:44.901Z,6.90
2023-02-14T12:32:53.493Z,6.50
2023-02-14T12:38:08.600Z,7.00
2023-02-14T12:43:29.923Z,6.10
2023-02-14T12:48:44.946Z,5.00
2023-02-14T12:53:59.946Z,6.50
2023-02-14T12:59:18.000Z,6.60
2023-02-14T13:04:40.890Z,6.40
2023-02-14T13:10:32.713Z,5.40
2023-02-14T13:16:10.827Z,6.70
2023-02-14T13:21:22.467Z,4.30
2023-02-14T13:26:31.690Z,6.90
2023-02-14T13:31:34.612Z,8.10
2023-02-14T13:36:37.831Z,6.90
2023-02-14T13:41:41.924Z,7.60
2023-02-14T13:46:49.070Z,8.10
2023-02-14T13:52:06.343Z,7.00
2023-02-14T13:57:29.208Z,7.00
2023-02-14T14:02:44.802Z,7.50
2023-02-14T14:07:48.023Z,7.40
2023-02-14T14:12:52.211Z,5.90
2023-02-14T14:18:13.405Z,6.90
2023-02-14T14:23:45.540Z,7.80
2023-02-14T14:28:48.679Z,8.40
2023-02-14T14:34:00.215Z,7.60
2023-02-14T14:39:03.278Z,9.60
2023-02-14T14:44:06.997Z,8.30
2023-02-14T14:49:12.319Z,8.40
2023-02-14T14:54:20.075Z,8.10
2023-02-14T14:59:25.660Z,8.30
2023-02-14T15:04:28.803Z,8.40
2023-02-14T15:09:33.636Z,8.80
2023-02-14T15:14:41.526Z,12.50
2023-02-14T15:19:47.493Z,15.00
2023-02-14T15:24:51.970Z,15.50
2023-02-14T15:30:00.614Z,14.90
2023-02-14T15:35:06.133Z,15.10
2023-02-14T15:40:18.179Z,15.20
2023-02-14T15:45:28.903Z,15.30
2023-02-14T15:50:36.505Z,15.70
2023-02-14T15:55:39.391Z,16.80
2023-02-14T16:00:44.131Z,18.00
2023-02-14T16:05:48.368Z,21.70
2023-02-14T16:11:26.305Z,24.70
2023-02-14T16:17:12.051Z,18.10
2023-02-14T16:22:33.370Z,17.10
2023-02-14T16:27:37.599Z,17.80
2023-02-14T16:32:40.689Z,16.60
2023-02-14T16:37:46.525Z,10.60
2023-02-14T16:42:51.238Z,12.50
2023-02-14T16:47:55.443Z,12.80
2023-02-14T16:52:58.568Z,15.20
2023-02-14T16:58:03.074Z,13.50
2023-02-14T17:03:10.933Z,12.60
2023-02-14T17:08:15.450Z,13.40
2023-02-14T17:13:22.506Z,13.00
2023-02-14T17:18:25.776Z,13.50
2023-02-14T17:23:28.674Z,12.00
2023-02-14T17:28:31.738Z,10.50
2023-02-14T17:33:35.726Z,13.30
2023-02-14T17:38:39.616Z,14.90
2023-02-14T17:43:42.948Z,15.20
2023-02-14T17:48:47.319Z,14.20
2023-02-14T17:53:50.854Z,16.20
2023-02-14T17:58:55.326Z,12.60
2023-02-14T18:03:58.149Z,8.90
2023-02-14T18:09:05.595Z,11.30
2023-02-14T18:14:08.899Z,14.80
2023-02-14T18:19:15.828Z,14.90
2023-02-14T18:29:22.862Z,14.60
2023-02-14T18:34:25.701Z,14.70
2023-02-14T18:39:28.601Z,16.30
2023-02-14T18:44:33.615Z,17.10
2023-02-14T18:49:38.992Z,18.30
2023-02-14T18:54:42.057Z,17.70
2023-02-14T18:59:46.588Z,19.20
2023-02-14T19:04:49.400Z,20.70
2023-02-14T19:09:54.958Z,18.40
2023-02-14T19:14:57.741Z,19.80
2023-02-14T19:20:00.794Z,18.80
2023-02-14T19:25:03.995Z,21.00
2023-02-14T19:30:07.634Z,20.60
2023-02-14T19:35:12.028Z,23.20
2023-02-14T19:40:16.016Z,23.60
2023-02-14T19:45:18.842Z,28.10
2023-02-14T19:50:22.684Z,31.70
2023-02-14T19:55:25.899Z,28.30
2023-02-14T20:00:29.511Z,25.40
2023-02-14T20:05:38.387Z,26.20
2023-02-14T20:10:41.348Z,18.70
2023-02-14T20:15:46.415Z,19.10
2023-02-14T20:21:04.441Z,19.20
2023-02-14T20:26:12.385Z,16.50
2023-02-14T20:31:19.118Z,16.50
2023-02-14T20:36:22.509Z,15.40
2023-02-14T20:41:26.409Z,18.10
2023-02-14T20:46:29.277Z,17.20
2023-02-14T20:51:32.379Z,18.30
2023-02-14T20:56:35.167Z,14.40
2023-02-14T21:01:38.550Z,15.70
2023-02-14T21:06:41.366Z,14.10
2023-02-14T21:11:44.463Z,14.10
2023-02-14T21:16:47.248Z,11.40
2023-02-14T21:21:51.219Z,11.70
2023-02-14T21:26:54.120Z,11.90
2023-02-14T21:31:56.944Z,11.00
2023-02-14T21:37:00.140Z,12.30
2023-02-14T21:42:03.169Z,12.70
2023-02-14T21:47:06.014Z,13.00
2023-02-14T21:52:08.841Z,14.50
2023-02-14T21:57:11.578Z,12.20
2023-02-14T22:02:14.448Z,13.10
2023-02-14T22:07:17.218Z,10.80
2023-02-14T22:12:20.078Z,11.70
2023-02-14T22:17:22.838Z,11.20
2023-02-14T22:22:25.601Z,12.20
2023-02-14T22:27:30.199Z,11.80
2023-02-14T22:32:33.256Z,12.70
2023-02-14T22:37:36.477Z,14.00
2023-02-14T22:42:39.276Z,13.30
2023-02-14T22:47:42.043Z,14.40
2023-02-14T22:52:44.835Z,13.00
2023-02-14T22:57:47.568Z,12.40
2023-02-14T23:02:50.368Z,14.00
2023-02-14T23:07:53.175Z,13.20
2023-02-14T23:13:14.680Z,12.90
2023-02-14T23:18:36.064Z,12.90
2023-02-14T23:23:38.888Z,7.90
2023-02-14T23:28:41.688Z,12.00
2023-02-14T23:33:44.463Z,14.50
2023-02-14T23:38:47.233Z,13.10
2023-02-14T23:43:49.998Z,12.60
2023-02-14T23:48:52.784Z,12.40
2023-02-14T23:53:55.822Z,12.50
2023-02-14T23:58:58.883Z,13.00
